Weather History for KPPQ - April, 2013

Change the Weather History Date:

Thursday, April 4, 2013

  Actual Average (KUIN) Record (KUIN)
Temperature  
Mean Temperature 45 °F 49 °F  
Max Temperature 59 °F 59 °F 86 °F (1942)
Min Temperature 31 °F 39 °F 20 °F (2002)
Degree Days  
Heating Degree Days 20 16  
Month to date heating degree days 66  
Since 1 July heating degree days 5126  
Cooling Degree Days 0 0  
Month to date cooling degree days 0  
Year to date cooling degree days 2  
Moisture  
Dew Point 26 °F    
Average Humidity 50    
Maximum Humidity 87    
Minimum Humidity 25    
Precipitation  
Precipitation 0.00 in 0.11 in 1.77 in (1947)
Month to date precipitation 0.43  
Year to date precipitation 6.29  
Sea Level Pressure  
Sea Level Pressure 30.14 in    
Wind  
Wind Speed 1 mph (West)    
Max Wind Speed 7 mph    
Max Gust Speed -    
Visibility 10 miles    
Events      
T = Trace of Precipitation, MM = Missing Value Source: NWS Daily Summary

Daily Weather History Graph

Daily Weather History Graph

Search for Another Location

Airport or City:

Trip Planner

Search our weather history database for the weather conditions in past years. The results will help you decide how hot, cold, wet, or windy it might be!

Date:

Astronomy

Apr. 04, 2013 Rise Set
Actual Time 6:42 AM CDT 7:30 PM CDT
Civil Twilight 6:14 AM CDT 7:57 PM CDT
Nautical Twilight 5:42 AM CDT 8:30 PM CDT
Astronomical Twilight 5:09 AM CDT 9:03 PM CDT
Moon 3:07 AM CDT (4/4) 1:50 PM CDT (4/4)
Length of Visible Light 13h 42m
Length of Day
12h 48m
Waning Crescent, 33% of the Moon is Illuminated
Apr 4
Waning Crescent
Apr 10
New
Apr 18
First Quarter
Apr 25
Full
May 2
Last Quarter

Hourly Weather History & Observations

Time (CDT) Temp. Windchill Dew Point Humidity Pressure Visibility Wind Dir Wind Speed Gust Speed Precip Events Conditions
12:15 AM 40.8 °F - 25.3 °F 54% 30.27 in 10.0 mi Calm Calm - N/A   Clear
12:35 AM 40.3 °F - 25.9 °F 56% 30.26 in 10.0 mi Calm Calm - N/A   Clear
12:55 AM 40.5 °F 38.4 °F 24.4 °F 53% 30.26 in 10.0 mi East 3.5 mph - N/A   Clear
1:15 AM 40.3 °F - 24.8 °F 54% 30.26 in 10.0 mi Calm Calm - N/A   Clear
1:35 AM 39.6 °F - 25.2 °F 56% 30.25 in 10.0 mi Calm Calm - N/A   Clear
1:55 AM 39.2 °F - 24.8 °F 56% 30.25 in 10.0 mi Calm Calm - N/A   Clear
2:15 AM 37.8 °F - 25.0 °F 60% 30.25 in 10.0 mi Calm Calm - N/A   Clear
2:35 AM 37.0 °F - 25.9 °F 64% 30.25 in 10.0 mi Calm Calm - N/A   Clear
2:55 AM 34.0 °F - 27.1 °F 76% 30.24 in 10.0 mi Calm Calm - N/A   Clear
3:15 AM 34.3 °F - 26.4 °F 73% 30.23 in 10.0 mi Calm Calm - N/A   Clear
3:35 AM 35.1 °F - 26.2 °F 70% 30.23 in 10.0 mi Calm Calm - N/A   Clear
3:55 AM 33.8 °F - 26.6 °F 75% 30.21 in 10.0 mi Calm Calm - N/A   Clear
4:15 AM 32.2 °F - 26.8 °F 80% 30.22 in 10.0 mi Calm Calm - N/A   Clear
4:35 AM 33.6 °F - 26.4 °F 75% 30.21 in 10.0 mi Calm Calm - N/A   Clear
4:55 AM 34.0 °F - 26.1 °F 73% 30.21 in 10.0 mi Calm Calm - N/A   Clear
5:15 AM 32.2 °F - 27.0 °F 81% 30.21 in 10.0 mi Calm Calm - N/A   Clear
5:35 AM 31.8 °F - 27.3 °F 83% 30.22 in 10.0 mi Calm Calm - N/A   Clear
5:55 AM 31.1 °F - 26.8 °F 84% 30.22 in 10.0 mi Calm Calm - N/A   Clear
6:15 AM 32.0 °F - 27.3 °F 83% 30.22 in 10.0 mi Calm Calm - N/A   Clear
6:35 AM 32.0 °F - 27.5 °F 83% 30.22 in 10.0 mi Calm Calm - N/A   Clear
6:55 AM 32.0 °F - 27.1 °F 82% 30.22 in 10.0 mi Calm Calm - N/A   Clear
7:15 AM 31.8 °F - 27.7 °F 85% 30.22 in 10.0 mi Calm Calm - N/A   Clear
7:35 AM 32.0 °F - 28.4 °F 87% 30.22 in 10.0 mi Calm Calm - N/A   Clear
7:55 AM 33.4 °F - 28.6 °F 82% 30.21 in 10.0 mi Calm Calm - N/A   Clear
8:15 AM 35.2 °F - 29.3 °F 79% 30.21 in 10.0 mi Calm Calm - N/A   Clear
8:35 AM 38.8 °F - 29.1 °F 68% 30.20 in 10.0 mi Calm Calm - N/A   Clear
8:55 AM 40.6 °F - 30.0 °F 66% 30.20 in 10.0 mi Calm Calm - N/A   Clear
9:15 AM 43.7 °F 41.1 °F 28.2 °F 54% 30.19 in 10.0 mi SSE 4.6 mph - N/A   Clear
9:35 AM 45.1 °F 42.0 °F 27.3 °F 50% 30.19 in 10.0 mi SE 5.8 mph - N/A   Clear
9:55 AM 46.6 °F - 26.4 °F 45% 30.18 in 10.0 mi Calm Calm - N/A   Clear
10:15 AM 48.4 °F - 23.9 °F 38% 30.17 in 10.0 mi SE 4.6 mph - N/A   Clear
10:35 AM 49.5 °F - 21.6 °F 33% 30.17 in 10.0 mi Calm Calm - N/A   Clear
10:55 AM 50.2 °F - 20.8 °F 32% 30.17 in 10.0 mi Calm Calm - N/A   Clear
11:15 AM 50.0 °F - 21.2 °F 32% 30.16 in 10.0 mi NW 4.6 mph - N/A   Clear
11:35 AM 50.7 °F - 21.7 °F 32% 30.16 in 10.0 mi SW 3.5 mph - N/A   Clear
11:55 AM 52.7 °F - 23.9 °F 33% 30.15 in 10.0 mi NNE 3.5 mph - N/A   Clear
12:15 PM 53.2 °F - 23.4 °F 31% 30.15 in 10.0 mi NE 4.6 mph - N/A   Clear
12:35 PM 53.8 °F - 22.8 °F 30% 30.14 in 10.0 mi Calm Calm - N/A   Clear
12:55 PM 53.6 °F - 23.0 °F 30% 30.13 in 10.0 mi Calm Calm - N/A   Clear
1:15 PM 54.0 °F - 23.0 °F 30% 30.13 in 10.0 mi Calm Calm - N/A   Clear
1:35 PM 55.4 °F - 23.7 °F 29% 30.11 in 10.0 mi SSE 3.5 mph - N/A   Clear
1:55 PM 55.9 °F - 22.8 °F 28% 30.11 in 10.0 mi Calm Calm - N/A   Clear
2:15 PM 57.4 °F - 25.3 °F 29% 30.10 in 10.0 mi WNW 5.8 mph - N/A   Clear
2:35 PM 56.8 °F - 24.1 °F 28% 30.09 in 10.0 mi Calm Calm - N/A   Clear
2:55 PM 57.7 °F - 24.3 °F 28% 30.08 in 10.0 mi NE 3.5 mph - N/A   Clear
3:15 PM 57.9 °F - 23.4 °F 26% 30.08 in 10.0 mi NW 4.6 mph - N/A   Clear
3:35 PM 58.6 °F - 23.9 °F 26% 30.07 in 10.0 mi WNW 5.8 mph - N/A   Clear
3:55 PM 58.6 °F - 24.4 °F 27% 30.06 in 10.0 mi SW 3.5 mph - N/A   Clear
4:15 PM 59.2 °F - 25.7 °F 28% 30.06 in 10.0 mi NW 6.9 mph - N/A   Clear
4:35 PM 59.2 °F - 24.6 °F 27% 30.05 in 10.0 mi WSW 6.9 mph - N/A   Clear
4:55 PM 59.4 °F - 26.2 °F 28% 30.05 in 10.0 mi North 3.5 mph - N/A   Clear
5:15 PM 59.2 °F - 25.0 °F 27% 30.05 in 10.0 mi WNW 6.9 mph - N/A   Clear
5:35 PM 59.0 °F - 23.5 °F 26% 30.05 in 10.0 mi West 4.6 mph - N/A   Clear
5:55 PM 59.2 °F - 23.2 °F 25% 30.05 in 10.0 mi West 5.8 mph - N/A   Clear
6:15 PM 58.6 °F - 24.1 °F 27% 30.05 in 10.0 mi WNW 4.6 mph - N/A   Clear
6:35 PM 58.8 °F - 25.7 °F 28% 30.05 in 10.0 mi WSW 4.6 mph - N/A   Clear
6:55 PM 57.6 °F - 24.1 °F 28% 30.05 in 10.0 mi WNW 5.8 mph - N/A   Clear
7:15 PM 56.7 °F - 23.9 °F 28% 30.05 in 10.0 mi WNW 4.6 mph - N/A   Clear
7:35 PM 55.4 °F - 25.9 °F 32% 30.05 in 10.0 mi WNW 3.5 mph - N/A   Clear
7:55 PM 53.2 °F - 26.6 °F 36% 30.05 in 10.0 mi Calm Calm - N/A   Clear
8:15 PM 52.7 °F - 26.1 °F 36% 30.05 in 10.0 mi Calm Calm - N/A   Clear
8:35 PM 51.8 °F - 25.5 °F 36% 30.05 in 10.0 mi Calm Calm - N/A   Clear
8:55 PM 50.5 °F - 26.6 °F 39% 30.06 in 10.0 mi Calm Calm - N/A   Clear
9:15 PM 47.8 °F - 31.1 °F 52% 30.06 in 10.0 mi Calm Calm - N/A   Clear
9:35 PM 48.2 °F - 29.1 °F 48% 30.07 in 10.0 mi WSW 3.5 mph - N/A   Clear
9:55 PM 45.7 °F 44.4 °F 29.1 °F 52% 30.06 in 10.0 mi WSW 3.5 mph - N/A   Clear
10:15 PM 44.6 °F 43.1 °F 31.8 °F 61% 30.06 in 10.0 mi SW 3.5 mph - N/A   Clear
10:35 PM 43.3 °F 41.7 °F 32.2 °F 65% 30.07 in 10.0 mi WSW 3.5 mph - N/A   Scattered Clouds
10:55 PM 43.0 °F 40.3 °F 32.0 °F 65% 30.06 in 10.0 mi SW 4.6 mph - N/A   Clear
11:15 PM 43.3 °F 40.7 °F 32.0 °F 64% 30.06 in 10.0 mi SW 4.6 mph - N/A   Clear
11:35 PM 42.1 °F 39.2 °F 31.8 °F 67% 30.07 in 10.0 mi WSW 4.6 mph - N/A   Clear
11:55 PM 41.4 °F 38.4 °F 32.0 °F 69% 30.07 in 10.0 mi WSW 4.6 mph - N/A   Clear